Time;durP1;ratioP1;P1;durP2;ratioP2;P2;SDS_P1;SDS_P2;PMS_P1;PMS_P2;Temp;Humidity;BMP_temperature;BMP_pressure;BME280_temperature;BME280_humidity;BME280_pressure;Samples;Min_cycle;Max_cycle;Signal;HPM_P1;HPM_P2
2023/06/22 00:00:57;;;;;;;3.00;2.10;;;24.80;68.20;;;;;;4990868;28;20037;-20
2023/06/22 00:03:24;;;;;;;3.20;2.23;;;24.80;68.20;;;;;;5020111;28;20166;-19
2023/06/22 00:05:50;;;;;;;2.78;2.13;;;24.70;68.40;;;;;;4982576;28;20447;-18
2023/06/22 00:08:17;;;;;;;4.00;2.25;;;24.60;68.40;;;;;;5008520;28;20556;-18
2023/06/22 00:10:44;;;;;;;3.72;2.20;;;24.60;68.60;;;;;;5015841;28;20341;-19
2023/06/22 00:13:10;;;;;;;2.72;1.90;;;24.50;68.70;;;;;;4999360;28;20065;-21
2023/06/22 00:15:38;;;;;;;3.20;2.10;;;24.50;68.90;;;;;;5022224;28;20119;-19
2023/06/22 00:18:05;;;;;;;2.95;2.15;;;24.40;68.80;;;;;;5019656;28;20331;-21
2023/06/22 00:20:30;;;;;;;3.22;2.25;;;24.30;68.90;;;;;;4993520;28;20242;-24
2023/06/22 00:22:57;;;;;;;3.53;2.23;;;24.30;69.10;;;;;;5017404;28;20029;-21
2023/06/22 00:25:23;;;;;;;2.83;1.95;;;24.20;70.00;;;;;;5000751;28;20250;-20
2023/06/22 00:27:49;;;;;;;3.05;2.10;;;24.20;69.40;;;;;;5013750;28;20065;-19
2023/06/22 00:30:19;;;;;;;3.92;1.90;;;24.10;69.50;;;;;;5025004;28;20377;-18
2023/06/22 00:32:45;;;;;;;2.70;1.90;;;24.10;70.00;;;;;;5012615;28;20033;-18
2023/06/22 00:35:12;;;;;;;2.53;1.90;;;24.10;69.80;;;;;;4990854;28;20029;-19
2023/06/22 00:37:40;;;;;;;2.50;2.00;;;24.00;69.90;;;;;;5015531;28;20053;-18
2023/06/22 00:40:09;;;;;;;3.00;2.20;;;24.00;70.00;;;;;;5016998;28;20167;-21
2023/06/22 00:42:34;;;;;;;3.03;1.90;;;23.90;70.10;;;;;;5004067;28;20021;-18
2023/06/22 00:45:00;;;;;;;3.03;2.10;;;23.90;70.30;;;;;;5009487;28;20356;-21
2023/06/22 00:47:27;;;;;;;2.50;1.88;;;23.80;70.30;;;;;;5025738;28;20032;-19
2023/06/22 00:49:53;;;;;;;3.40;1.80;;;23.80;70.40;;;;;;5038328;28;20168;-18
2023/06/22 00:52:27;;;;;;;2.87;2.07;;;23.70;70.60;;;;;;4978839;28;20060;-18
2023/06/22 00:54:53;;;;;;;3.38;2.20;;;23.80;71.00;;;;;;5024857;28;20506;-21
2023/06/22 00:57:20;;;;;;;2.50;1.90;;;23.70;70.90;;;;;;5000147;28;20271;-18
2023/06/22 00:59:47;;;;;;;3.28;2.08;;;23.70;70.90;;;;;;5000351;28;20042;-18
2023/06/22 01:02:13;;;;;;;3.17;2.05;;;23.70;71.00;;;;;;5022030;28;20407;-23
2023/06/22 01:04:40;;;;;;;3.73;2.00;;;23.70;71.10;;;;;;5002148;28;20380;-24
2023/06/22 01:07:40;;;;;;;3.40;2.15;;;23.70;71.30;;;;;;4993897;28;20052;-22
2023/06/22 01:10:27;;;;;;;2.35;1.90;;;23.70;71.50;;;;;;5012301;28;20506;-25
2023/06/22 01:12:57;;;;;;;2.88;2.00;;;23.70;71.10;;;;;;5011089;28;20037;-22
2023/06/22 01:15:46;;;;;;;3.53;2.08;;;23.70;71.10;;;;;;4991229;28;20315;-24
2023/06/22 01:18:13;;;;;;;3.13;1.97;;;23.70;71.10;;;;;;5018774;28;20364;-24
2023/06/22 01:20:40;;;;;;;2.70;2.10;;;23.80;71.20;;;;;;5007368;28;20017;-24
2023/06/22 01:23:11;;;;;;;2.85;2.00;;;23.70;71.10;;;;;;4980143;28;20037;-22
2023/06/22 01:26:18;;;;;;;2.80;1.95;;;23.70;71.30;;;;;;5025593;28;20021;-24
2023/06/22 01:28:48;;;;;;;3.13;2.00;;;23.80;71.30;;;;;;5032115;28;20037;-24
2023/06/22 01:31:19;;;;;;;3.27;2.17;;;23.80;71.30;;;;;;5004912;28;20258;-23
2023/06/22 01:34:06;;;;;;;3.65;2.10;;;23.70;71.00;;;;;;5021656;28;20017;-23
2023/06/22 01:36:34;;;;;;;3.20;2.05;;;23.70;70.90;;;;;;5022510;28;20431;-23
2023/06/22 01:39:01;;;;;;;2.92;1.80;;;23.70;70.90;;;;;;4987499;28;20044;-22
2023/06/22 01:41:29;;;;;;;3.08;2.17;;;23.70;71.10;;;;;;5012443;28;23582;-23
2023/06/22 01:43:56;;;;;;;3.43;2.13;;;23.60;70.90;;;;;;5018493;28;20033;-22
2023/06/22 01:46:23;;;;;;;3.25;1.90;;;23.60;70.90;;;;;;4996531;28;20124;-24
2023/06/22 01:48:50;;;;;;;3.10;2.00;;;23.60;71.20;;;;;;5020898;28;20030;-21
2023/06/22 01:51:16;;;;;;;2.53;1.83;;;23.50;71.30;;;;;;5011313;28;20226;-24
2023/06/22 01:53:42;;;;;;;3.40;1.93;;;23.60;71.40;;;;;;4995138;28;20626;-26
2023/06/22 01:56:08;;;;;;;2.78;2.00;;;23.50;71.40;;;;;;5014088;28;20041;-23
2023/06/22 01:58:40;;;;;;;3.20;2.00;;;23.50;71.50;;;;;;5012952;28;20032;-24
2023/06/22 02:01:18;;;;;;;2.97;2.00;;;23.40;71.50;;;;;;4998041;28;20536;-23
2023/06/22 02:03:57;;;;;;;3.23;2.10;;;23.40;71.50;;;;;;5010453;28;20564;-24
2023/06/22 02:06:34;;;;;;;3.33;1.95;;;23.40;71.50;;;;;;5002790;28;20250;-24
2023/06/22 02:09:06;;;;;;;2.90;2.08;;;23.40;71.40;;;;;;5032083;28;20049;-20
2023/06/22 02:11:34;;;;;;;2.92;2.03;;;23.40;71.30;;;;;;5016534;28;20085;-23
2023/06/22 02:14:00;;;;;;;3.60;2.10;;;23.30;71.40;;;;;;4995742;28;20622;-22
2023/06/22 02:16:29;;;;;;;3.00;1.97;;;23.30;71.50;;;;;;5044658;28;20033;-24
2023/06/22 02:19:02;;;;;;;3.13;2.05;;;23.20;71.50;;;;;;4995307;28;20805;-23
2023/06/22 02:21:29;;;;;;;3.78;2.10;;;23.20;71.50;;;;;;5038642;28;20051;-26
2023/06/22 02:23:54;;;;;;;3.00;2.05;;;23.20;71.60;;;;;;5019357;28;20025;-22
2023/06/22 02:26:20;;;;;;;3.00;1.90;;;23.20;71.70;;;;;;4989360;28;20041;-22
2023/06/22 02:28:46;;;;;;;3.03;2.00;;;23.10;71.80;;;;;;5008378;28;20112;-25
2023/06/22 02:31:12;;;;;;;3.85;2.40;;;23.10;72.20;;;;;;5039291;28;20043;-24
2023/06/22 02:33:37;;;;;;;3.40;2.30;;;23.10;72.20;;;;;;5006409;28;20035;-21
2023/06/22 02:36:05;;;;;;;3.23;2.23;;;23.00;72.10;;;;;;4996732;28;20219;-24
2023/06/22 02:38:34;;;;;;;3.88;2.25;;;23.00;72.00;;;;;;5022076;28;20064;-24
2023/06/22 02:41:00;;;;;;;3.72;2.50;;;23.00;71.80;;;;;;4986756;28;20033;-23
2023/06/22 02:43:26;;;;;;;3.50;2.28;;;22.90;71.80;;;;;;5019152;28;20017;-24
2023/06/22 02:45:51;;;;;;;4.10;2.60;;;22.90;71.80;;;;;;5003489;28;20036;-23
2023/06/22 02:48:17;;;;;;;4.22;2.30;;;22.90;71.80;;;;;;5001856;28;20064;-24
2023/06/22 02:50:43;;;;;;;2.70;1.97;;;22.80;71.80;;;;;;5009942;28;20033;-24
2023/06/22 02:53:08;;;;;;;3.35;2.00;;;22.70;71.90;;;;;;5006269;28;20036;-24
2023/06/22 02:55:34;;;;;;;3.03;1.93;;;22.70;72.10;;;;;;5018228;28;20052;-24
2023/06/22 02:58:04;;;;;;;3.72;2.33;;;22.60;72.20;;;;;;4993297;28;20426;-23
2023/06/22 03:00:31;;;;;;;4.00;2.70;;;22.60;72.20;;;;;;5007250;28;20064;-24
2023/06/22 03:02:57;;;;;;;3.70;2.43;;;22.60;72.30;;;;;;5011297;28;20235;-23
2023/06/22 03:05:23;;;;;;;4.00;2.63;;;22.50;72.20;;;;;;5000266;28;20010;-23
2023/06/22 03:07:49;;;;;;;3.63;2.75;;;22.50;72.30;;;;;;5005856;28;20573;-23
2023/06/22 03:10:15;;;;;;;3.65;2.22;;;22.50;72.30;;;;;;5019415;28;20025;-24
2023/06/22 03:12:42;;;;;;;3.53;2.25;;;22.40;72.20;;;;;;4990828;28;20045;-24
2023/06/22 03:15:10;;;;;;;3.57;2.37;;;22.40;72.40;;;;;;5041114;28;20032;-24
2023/06/22 03:17:41;;;;;;;3.47;2.38;;;22.30;72.40;;;;;;5053581;28;20435;-22
2023/06/22 03:20:11;;;;;;;4.03;2.47;;;22.30;72.60;;;;;;4990544;28;20033;-24
2023/06/22 03:22:41;;;;;;;4.18;2.60;;;22.30;72.70;;;;;;5018688;28;20026;-21
2023/06/22 03:25:09;;;;;;;3.65;2.58;;;22.20;72.80;;;;;;5013072;28;20305;-25
2023/06/22 03:27:37;;;;;;;3.40;2.50;;;22.20;72.70;;;;;;4986540;28;20036;-20
2023/06/22 03:30:03;;;;;;;3.97;2.67;;;22.20;72.90;;;;;;5009934;28;20060;-24
2023/06/22 03:32:29;;;;;;;3.60;2.47;;;22.20;73.00;;;;;;5022076;28;20828;-24
2023/06/22 03:34:58;;;;;;;4.22;2.75;;;22.10;73.00;;;;;;5001834;28;20777;-24
2023/06/22 03:37:25;;;;;;;3.63;2.50;;;22.10;73.00;;;;;;5037868;28;20048;-25
2023/06/22 03:39:51;;;;;;;4.78;3.00;;;22.00;73.10;;;;;;4992474;28;20048;-22
2023/06/22 03:42:17;;;;;;;3.90;2.70;;;22.00;73.30;;;;;;4993521;28;20016;-24
2023/06/22 03:44:43;;;;;;;3.53;2.38;;;22.00;73.50;;;;;;5021241;28;20509;-22
2023/06/22 03:47:09;;;;;;;3.87;2.90;;;22.00;73.70;;;;;;5009598;28;20033;-23
2023/06/22 03:49:35;;;;;;;3.97;2.72;;;22.00;73.80;;;;;;5011722;28;20486;-21
2023/06/22 03:52:02;;;;;;;5.25;2.78;;;22.00;73.90;;;;;;5006439;28;20098;-24
2023/06/22 03:54:29;;;;;;;4.07;2.90;;;22.00;74.10;;;;;;5022226;28;20448;-21
2023/06/22 03:56:58;;;;;;;5.17;3.33;;;22.00;74.20;;;;;;5007620;28;20578;-24
2023/06/22 03:59:25;;;;;;;4.47;3.05;;;22.00;74.30;;;;;;4992996;28;20465;-24
2023/06/22 04:01:51;;;;;;;5.05;3.10;;;22.00;74.30;;;;;;5001750;28;20034;-24
2023/06/22 04:04:18;;;;;;;4.73;3.10;;;22.00;74.40;;;;;;5011870;28;20025;-24
2023/06/22 04:06:44;;;;;;;5.50;3.17;;;22.00;74.60;;;;;;5005588;28;20827;-24
2023/06/22 04:09:10;;;;;;;4.60;3.28;;;22.00;74.70;;;;;;5020254;28;20108;-24
2023/06/22 04:11:35;;;;;;;4.68;3.22;;;22.00;74.80;;;;;;5003459;28;20035;-20
2023/06/22 04:14:01;;;;;;;5.17;3.30;;;22.10;74.90;;;;;;4983549;28;20438;-22
2023/06/22 04:16:27;;;;;;;5.47;3.60;;;22.10;74.90;;;;;;5019994;28;20032;-24
2023/06/22 04:18:53;;;;;;;4.20;2.93;;;22.10;75.00;;;;;;5002322;28;20179;-23
2023/06/22 04:21:19;;;;;;;5.00;3.20;;;22.10;75.10;;;;;;5008439;28;20489;-24
2023/06/22 04:23:46;;;;;;;4.85;3.35;;;22.10;75.30;;;;;;5011773;28;20084;-24
2023/06/22 04:26:13;;;;;;;5.20;3.40;;;22.10;75.40;;;;;;5002531;28;20694;-23
2023/06/22 04:28:39;;;;;;;4.68;3.30;;;22.20;75.50;;;;;;5018253;28;20478;-23
2023/06/22 04:31:05;;;;;;;5.63;3.63;;;22.20;75.40;;;;;;4987514;28;20107;-23
2023/06/22 04:33:31;;;;;;;5.30;3.47;;;22.30;75.60;;;;;;5006511;28;20034;-23
2023/06/22 04:35:58;;;;;;;5.40;3.87;;;22.30;75.50;;;;;;5011544;28;20059;-24
2023/06/22 04:38:24;;;;;;;5.38;3.63;;;22.30;75.50;;;;;;5005527;28;20071;-27
2023/06/22 04:40:50;;;;;;;4.95;3.70;;;22.30;75.50;;;;;;5032438;28;20559;-22
2023/06/22 04:43:16;;;;;;;5.60;3.63;;;22.30;75.60;;;;;;5016258;28;20165;-22
2023/06/22 04:45:42;;;;;;;5.13;3.40;;;22.30;75.70;;;;;;5015488;28;20030;-24
2023/06/22 04:48:16;;;;;;;5.78;3.60;;;22.30;75.80;;;;;;5015929;28;20025;-25
2023/06/22 04:50:42;;;;;;;5.72;3.53;;;22.30;76.00;;;;;;5005584;28;20026;-23
2023/06/22 04:53:09;;;;;;;4.93;3.37;;;22.30;76.10;;;;;;5006813;28;21808;-23
2023/06/22 04:55:37;;;;;;;6.85;4.07;;;22.30;76.10;;;;;;5020719;28;20014;-24
2023/06/22 04:58:04;;;;;;;5.20;3.90;;;22.40;76.10;;;;;;5006948;28;20026;-22
2023/06/22 05:00:31;;;;;;;7.50;3.80;;;22.40;76.20;;;;;;4976270;28;20032;-22
2023/06/22 05:02:57;;;;;;;6.10;4.00;;;22.50;76.40;;;;;;4993706;28;20040;-24
2023/06/22 05:05:24;;;;;;;5.30;3.53;;;22.50;76.40;;;;;;5005575;28;20018;-24
2023/06/22 05:07:52;;;;;;;5.10;3.50;;;22.60;76.70;;;;;;5002649;28;20022;-23
2023/06/22 05:10:19;;;;;;;6.28;3.80;;;22.70;76.80;;;;;;5014473;28;20053;-23
2023/06/22 05:12:46;;;;;;;5.35;3.63;;;22.70;76.80;;;;;;5017114;28;20115;-24
2023/06/22 05:15:12;;;;;;;4.93;3.65;;;22.80;76.90;;;;;;5015532;28;20087;-19
2023/06/22 05:17:42;;;;;;;5.83;3.77;;;22.80;77.00;;;;;;4977112;28;20064;-25
2023/06/22 05:20:12;;;;;;;6.70;4.22;;;22.90;76.90;;;;;;5004564;28;20249;-22
2023/06/22 05:22:39;;;;;;;6.00;3.80;;;23.00;76.60;;;;;;5020394;28;20123;-23
2023/06/22 05:25:08;;;;;;;5.57;3.75;;;23.00;76.40;;;;;;5027963;28;20123;-26
2023/06/22 05:27:33;;;;;;;6.07;3.92;;;23.00;76.40;;;;;;5005719;28;20087;-26
2023/06/22 05:29:59;;;;;;;5.70;3.97;;;23.00;76.50;;;;;;5024743;28;20275;-24
2023/06/22 05:32:25;;;;;;;5.50;3.78;;;23.10;76.60;;;;;;4974199;28;20060;-25
2023/06/22 05:34:50;;;;;;;5.67;4.13;;;23.10;76.60;;;;;;5024245;28;20049;-23
2023/06/22 05:37:16;;;;;;;5.90;3.90;;;23.20;76.50;;;;;;5023337;28;20045;-24
2023/06/22 05:39:42;;;;;;;6.80;4.37;;;23.20;76.60;;;;;;5017382;28;20124;-22
2023/06/22 05:42:08;;;;;;;6.13;4.37;;;23.20;77.40;;;;;;4999947;28;20333;-25
2023/06/22 05:44:34;;;;;;;5.10;3.67;;;23.30;76.60;;;;;;5021204;28;20387;-22
2023/06/22 05:47:00;;;;;;;6.57;4.43;;;23.30;76.50;;;;;;4991879;28;20681;-24
2023/06/22 05:49:32;;;;;;;6.17;4.07;;;23.30;76.40;;;;;;5022318;28;20037;-23
2023/06/22 05:51:59;;;;;;;5.83;4.10;;;23.40;76.40;;;;;;4992036;28;21470;-24
2023/06/22 05:54:25;;;;;;;6.32;4.35;;;23.40;76.30;;;;;;5013396;28;20581;-23
2023/06/22 05:56:51;;;;;;;7.57;4.35;;;23.40;76.30;;;;;;4999353;28;20080;-22
2023/06/22 05:59:17;;;;;;;5.80;4.28;;;23.40;76.10;;;;;;5014041;28;20026;-24
2023/06/22 06:01:43;;;;;;;6.97;4.13;;;23.40;76.20;;;;;;4988233;28;20032;-21
2023/06/22 06:04:08;;;;;;;6.45;4.55;;;23.40;76.30;;;;;;5031949;28;20633;-23
2023/06/22 06:06:36;;;;;;;5.70;4.03;;;23.40;76.20;;;;;;5009518;28;20087;-24
2023/06/22 06:09:04;;;;;;;6.68;4.53;;;23.40;76.10;;;;;;5003674;28;20365;-25
2023/06/22 06:11:30;;;;;;;6.53;4.28;;;23.40;76.20;;;;;;5025721;28;20033;-24
2023/06/22 06:13:55;;;;;;;6.77;4.20;;;23.40;76.30;;;;;;4999773;28;20029;-24
2023/06/22 06:16:22;;;;;;;7.65;4.65;;;23.30;76.40;;;;;;5034906;28;20040;-24
2023/06/22 06:18:51;;;;;;;6.15;4.30;;;23.30;76.60;;;;;;4981505;28;20156;-22
2023/06/22 06:21:17;;;;;;;7.40;4.72;;;23.30;76.60;;;;;;5008933;28;20029;-26
2023/06/22 06:23:42;;;;;;;7.00;4.67;;;23.40;76.60;;;;;;5000867;28;20072;-21
2023/06/22 06:26:08;;;;;;;7.03;4.80;;;23.30;76.40;;;;;;5016859;28;20032;-22
2023/06/22 06:28:35;;;;;;;7.90;4.90;;;23.30;76.40;;;;;;5006140;28;20072;-24
2023/06/22 06:31:01;;;;;;;7.47;4.85;;;23.30;76.40;;;;;;5017184;28;20388;-23
2023/06/22 06:33:27;;;;;;;6.57;4.60;;;23.30;76.50;;;;;;5008267;28;20460;-24
2023/06/22 06:35:53;;;;;;;7.40;5.10;;;23.30;76.60;;;;;;5000483;28;20052;-22
2023/06/22 06:38:18;;;;;;;6.78;4.88;;;23.30;77.40;;;;;;4993145;28;20033;-25
2023/06/22 06:40:45;;;;;;;6.40;4.80;;;23.30;76.80;;;;;;5018430;28;20029;-22
2023/06/22 06:43:10;;;;;;;6.28;4.70;;;23.30;76.90;;;;;;5004250;28;20304;-23
2023/06/22 06:45:36;;;;;;;7.03;4.68;;;23.20;77.00;;;;;;5007470;28;20061;-23
2023/06/22 06:48:02;;;;;;;7.03;4.40;;;23.30;77.20;;;;;;5020340;28;20288;-22
2023/06/22 06:50:28;;;;;;;6.18;5.10;;;23.30;77.20;;;;;;4973785;28;20143;-23
2023/06/22 06:52:54;;;;;;;6.63;4.75;;;23.40;77.40;;;;;;5011181;28;20396;-24
2023/06/22 06:55:20;;;;;;;7.73;5.43;;;23.40;77.90;;;;;;5001677;28;20037;-24
2023/06/22 06:57:48;;;;;;;6.95;4.90;;;23.40;77.60;;;;;;5001566;28;20127;-24
2023/06/22 07:00:15;;;;;;;7.22;5.05;;;23.50;77.60;;;;;;5001170;28;20026;-22
2023/06/22 07:02:42;;;;;;;7.25;5.30;;;23.50;77.50;;;;;;5021626;28;20013;-24
2023/06/22 07:05:09;;;;;;;7.07;5.43;;;23.50;77.40;;;;;;4983329;28;20033;-21
2023/06/22 07:07:35;;;;;;;6.60;5.00;;;23.50;77.40;;;;;;5014213;28;20727;-23
2023/06/22 07:10:00;;;;;;;6.82;4.95;;;23.60;77.30;;;;;;5003064;28;20025;-21
2023/06/22 07:12:26;;;;;;;8.23;5.13;;;23.60;77.30;;;;;;5018529;28;20299;-22
2023/06/22 07:14:53;;;;;;;8.13;5.60;;;23.60;77.20;;;;;;5006429;28;20284;-24
2023/06/22 07:17:19;;;;;;;7.13;5.43;;;23.70;77.60;;;;;;5018329;28;20090;-24
2023/06/22 07:19:45;;;;;;;8.52;5.30;;;23.70;77.20;;;;;;5022722;28;20039;-25
2023/06/22 07:22:11;;;;;;;6.83;5.07;;;23.70;77.20;;;;;;4973028;28;20056;-21
2023/06/22 07:24:37;;;;;;;8.57;5.28;;;23.70;77.20;;;;;;4998799;28;20199;-22
2023/06/22 07:27:03;;;;;;;6.70;5.43;;;23.70;77.20;;;;;;5020429;28;20025;-23
2023/06/22 07:29:29;;;;;;;7.93;5.53;;;23.70;77.30;;;;;;5004058;28;20860;-24
2023/06/22 07:31:56;;;;;;;7.30;5.38;;;23.80;77.40;;;;;;5014784;28;20044;-24
2023/06/22 07:34:22;;;;;;;7.68;5.70;;;23.80;77.50;;;;;;5019909;28;20111;-25
2023/06/22 07:36:48;;;;;;;7.10;5.17;;;23.80;77.60;;;;;;4987992;28;20407;-25
2023/06/22 07:39:14;;;;;;;6.75;5.13;;;23.90;77.60;;;;;;4989565;28;20038;-22
2023/06/22 07:41:40;;;;;;;7.65;5.40;;;23.90;77.60;;;;;;5014303;28;20022;-23
2023/06/22 07:44:07;;;;;;;7.73;5.43;;;23.90;77.50;;;;;;5007116;28;20095;-22
2023/06/22 07:46:33;;;;;;;6.65;4.82;;;24.00;77.50;;;;;;5003972;28;20091;-25
2023/06/22 07:48:59;;;;;;;7.30;5.10;;;24.00;77.30;;;;;;5017177;28;20033;-25
2023/06/22 07:51:25;;;;;;;8.13;5.60;;;24.00;77.20;;;;;;4978671;28;20258;-24
2023/06/22 07:53:51;;;;;;;7.82;5.38;;;24.00;77.00;;;;;;5017231;28;20107;-24
2023/06/22 07:56:19;;;;;;;7.00;5.30;;;24.10;77.10;;;;;;4992267;28;20034;-22
2023/06/22 07:58:46;;;;;;;6.82;5.03;;;24.10;77.10;;;;;;5020460;28;20033;-23
2023/06/22 08:01:12;;;;;;;7.10;5.03;;;24.10;77.00;;;;;;4999038;28;20035;-23
2023/06/22 08:03:39;;;;;;;6.50;4.78;;;24.00;77.00;;;;;;5020775;28;20570;-23
2023/06/22 08:06:05;;;;;;;7.60;5.40;;;24.10;77.10;;;;;;5005454;28;20518;-22
2023/06/22 08:08:31;;;;;;;6.70;5.03;;;24.10;76.80;;;;;;4997481;28;20037;-25
2023/06/22 08:10:57;;;;;;;7.40;5.38;;;24.10;76.80;;;;;;5001833;28;20028;-23
2023/06/22 08:13:23;;;;;;;6.18;4.88;;;24.10;77.30;;;;;;5015253;28;20033;-24
2023/06/22 08:15:49;;;;;;;7.23;4.57;;;24.10;76.80;;;;;;5006082;28;20069;-22
2023/06/22 08:18:16;;;;;;;6.13;4.47;;;24.10;76.90;;;;;;5017606;28;20672;-22
2023/06/22 08:20:42;;;;;;;5.70;4.57;;;24.10;77.00;;;;;;5016155;28;20025;-25
2023/06/22 08:23:07;;;;;;;6.90;4.83;;;24.10;76.80;;;;;;4984020;28;20030;-22
2023/06/22 08:25:34;;;;;;;5.75;4.30;;;24.10;76.60;;;;;;5002841;28;20052;-23
2023/06/22 08:28:00;;;;;;;6.50;4.47;;;24.10;76.50;;;;;;5021997;28;20551;-22
2023/06/22 08:30:27;;;;;;;5.43;4.30;;;24.10;76.40;;;;;;5053231;28;20052;-24
2023/06/22 08:32:53;;;;;;;5.60;4.13;;;24.10;76.50;;;;;;5007655;28;20391;-24
2023/06/22 08:35:20;;;;;;;5.78;4.05;;;24.10;76.50;;;;;;5024209;28;20120;-23
2023/06/22 08:37:55;;;;;;;5.22;4.18;;;24.10;76.40;;;;;;5020631;28;20076;-25
2023/06/22 08:40:22;;;;;;;5.03;4.10;;;24.10;76.40;;;;;;4985283;28;20600;-24
2023/06/22 08:42:48;;;;;;;6.43;3.67;;;24.10;76.30;;;;;;5021304;28;20112;-24
2023/06/22 08:45:14;;;;;;;5.25;3.80;;;24.10;76.20;;;;;;5018947;28;20025;-22
2023/06/22 08:47:41;;;;;;;5.63;3.70;;;24.10;76.00;;;;;;5004795;28;20053;-24
2023/06/22 08:50:10;;;;;;;4.72;3.60;;;24.10;75.90;;;;;;5020007;28;20083;-20
2023/06/22 08:52:39;;;;;;;4.63;3.67;;;24.10;75.80;;;;;;5023203;28;20133;-23
2023/06/22 08:55:06;;;;;;;4.60;3.40;;;24.10;75.70;;;;;;4987527;28;20025;-22
2023/06/22 08:57:32;;;;;;;5.13;3.65;;;24.10;75.60;;;;;;4991838;28;20171;-23
2023/06/22 08:59:58;;;;;;;4.70;3.63;;;24.00;75.70;;;;;;5020043;28;20037;-24
2023/06/22 09:02:30;;;;;;;4.82;3.70;;;24.00;75.90;;;;;;5004888;28;20404;-23
2023/06/22 09:04:57;;;;;;;4.50;3.53;;;24.10;75.70;;;;;;5004589;28;20031;-23
2023/06/22 09:07:24;;;;;;;4.57;3.65;;;24.10;75.80;;;;;;5002614;28;20203;-23
2023/06/22 09:09:50;;;;;;;5.13;3.78;;;24.10;75.90;;;;;;4984586;28;20037;-23
2023/06/22 09:12:19;;;;;;;4.93;3.60;;;24.10;75.80;;;;;;5020851;28;20388;-23
2023/06/22 09:14:45;;;;;;;4.93;3.35;;;24.20;75.80;;;;;;5016058;28;20091;-24
2023/06/22 09:17:12;;;;;;;5.07;3.47;;;24.10;75.80;;;;;;5003761;28;20043;-23
2023/06/22 09:19:38;;;;;;;5.30;3.50;;;24.20;76.00;;;;;;5005061;28;20369;-24
2023/06/22 09:22:06;;;;;;;5.53;3.83;;;24.20;75.90;;;;;;5022011;28;20080;-22
2023/06/22 09:24:32;;;;;;;4.35;3.55;;;24.20;76.00;;;;;;5018990;28;20337;-24
2023/06/22 09:26:58;;;;;;;5.07;3.63;;;24.30;75.90;;;;;;4985886;28;20039;-23
2023/06/22 09:29:24;;;;;;;5.50;3.57;;;24.20;75.70;;;;;;5002977;28;20535;-24
2023/06/22 09:31:49;;;;;;;4.60;3.47;;;24.20;75.50;;;;;;5011021;28;20103;-24
2023/06/22 09:34:20;;;;;;;6.17;3.77;;;24.20;75.50;;;;;;5004910;28;20373;-23
2023/06/22 09:36:46;;;;;;;4.35;3.45;;;24.20;75.30;;;;;;5024671;28;20054;-24
2023/06/22 09:39:11;;;;;;;6.70;3.65;;;24.30;75.40;;;;;;5019804;28;20021;-22
2023/06/22 09:41:37;;;;;;;4.93;3.63;;;24.30;75.30;;;;;;4983705;28;23059;-23
2023/06/22 09:44:03;;;;;;;5.53;3.60;;;24.30;75.30;;;;;;5018249;28;20497;-23
2023/06/22 09:46:29;;;;;;;5.00;3.38;;;24.30;75.30;;;;;;4989187;28;20747;-26
2023/06/22 09:48:54;;;;;;;5.70;3.70;;;24.30;75.30;;;;;;5023389;28;20038;-24
2023/06/22 09:51:21;;;;;;;5.15;3.42;;;24.30;75.30;;;;;;5001275;28;20067;-23
2023/06/22 09:53:47;;;;;;;4.90;3.30;;;24.30;75.20;;;;;;5018771;28;20543;-23
2023/06/22 09:56:16;;;;;;;5.00;3.47;;;24.30;75.40;;;;;;4996526;28;20025;-22
2023/06/22 09:58:43;;;;;;;5.20;3.70;;;24.20;75.50;;;;;;5010905;28;20037;-21
2023/06/22 10:01:09;;;;;;;6.57;4.15;;;24.20;75.70;;;;;;5026847;28;20468;-21
2023/06/22 10:03:35;;;;;;;6.47;4.38;;;24.10;76.00;;;;;;5022479;28;20017;-22
2023/06/22 10:06:01;;;;;;;6.33;4.40;;;24.00;76.30;;;;;;5008099;28;20522;-21
2023/06/22 10:08:27;;;;;;;6.18;4.32;;;23.90;76.80;;;;;;5019174;28;20670;-24
2023/06/22 10:10:53;;;;;;;8.38;4.72;;;23.70;77.30;;;;;;5024494;28;20475;-24
2023/06/22 10:13:19;;;;;;;5.87;4.43;;;23.60;78.00;;;;;;4980560;28;20215;-27
2023/06/22 10:15:51;;;;;;;5.90;4.57;;;23.50;79.00;;;;;;5020310;28;20026;-32
2023/06/22 10:18:17;;;;;;;5.82;4.40;;;23.30;80.00;;;;;;4987851;28;20029;-22
2023/06/22 10:20:43;;;;;;;6.82;4.78;;;23.20;81.40;;;;;;5018387;28;20053;-22
2023/06/22 10:23:09;;;;;;;6.73;4.67;;;23.00;82.70;;;;;;4998682;28;20017;-23
2023/06/22 10:25:34;;;;;;;6.95;4.95;;;22.90;84.10;;;;;;5022091;28;20033;-22
2023/06/22 10:28:00;;;;;;;7.37;4.80;;;22.80;85.40;;;;;;4991017;28;20021;-16
2023/06/22 10:30:26;;;;;;;7.35;4.55;;;22.70;86.50;;;;;;5010784;28;20396;-19
2023/06/22 10:32:51;;;;;;;7.03;5.30;;;22.60;87.20;;;;;;4999514;28;20041;-17
2023/06/22 10:35:17;;;;;;;7.50;5.03;;;22.50;88.10;;;;;;5022988;28;20411;-16
2023/06/22 10:37:44;;;;;;;7.30;5.27;;;22.50;89.10;;;;;;5000347;28;20062;-19
2023/06/22 10:40:11;;;;;;;7.20;4.95;;;22.40;89.80;;;;;;5018728;28;20763;-19
2023/06/22 10:42:37;;;;;;;7.45;5.30;;;22.40;90.10;;;;;;5038327;28;20471;-20
2023/06/22 10:45:03;;;;;;;7.70;5.63;;;22.30;90.50;;;;;;4987844;28;20030;-16
2023/06/22 10:47:28;;;;;;;7.10;5.07;;;22.30;90.90;;;;;;5009116;28;20032;-20
2023/06/22 10:49:54;;;;;;;8.85;6.22;;;22.20;91.20;;;;;;5008537;28;20034;-15
2023/06/22 10:52:20;;;;;;;8.43;5.57;;;22.30;91.50;;;;;;5020092;28;20083;-19
2023/06/22 10:54:45;;;;;;;8.85;6.30;;;22.20;91.80;;;;;;5005278;28;20041;-16
2023/06/22 10:57:11;;;;;;;8.20;5.97;;;22.30;92.10;;;;;;5020409;28;20036;-16
2023/06/22 10:59:37;;;;;;;9.95;6.97;;;22.20;92.30;;;;;;4994004;28;20056;-19
2023/06/22 11:02:02;;;;;;;9.97;6.77;;;22.20;92.50;;;;;;5022182;28;20099;-16
2023/06/22 11:04:28;;;;;;;15.90;6.82;;;22.20;92.60;;;;;;5004977;28;20383;-21
2023/06/22 11:06:56;;;;;;;11.63;6.33;;;22.20;92.80;;;;;;5020394;28;20060;-16
2023/06/22 11:09:22;;;;;;;10.70;7.30;;;22.20;93.00;;;;;;5005704;28;20095;-18
2023/06/22 11:11:49;;;;;;;11.05;6.53;;;22.20;93.10;;;;;;5017814;28;20033;-15
2023/06/22 11:14:15;;;;;;;9.55;6.70;;;22.10;93.30;;;;;;4981102;28;20041;-18
2023/06/22 11:16:40;;;;;;;10.60;6.90;;;22.10;93.40;;;;;;5024127;28;20022;-18
2023/06/22 11:19:06;;;;;;;10.38;6.93;;;22.00;93.40;;;;;;4985124;28;20423;-16
2023/06/22 11:21:32;;;;;;;10.20;6.83;;;22.00;93.60;;;;;;5010393;28;20788;-18
2023/06/22 11:23:58;;;;;;;9.88;6.85;;;21.90;93.80;;;;;;5009558;28;20025;-13
2023/06/22 11:26:27;;;;;;;9.20;6.47;;;21.90;93.90;;;;;;5006176;28;20112;-18
2023/06/22 11:28:53;;;;;;;8.83;6.20;;;21.80;93.90;;;;;;5021746;28;20376;-15
2023/06/22 11:31:19;;;;;;;9.77;6.60;;;21.80;94.00;;;;;;4985281;28;20693;-19
2023/06/22 11:33:45;;;;;;;8.70;6.32;;;21.70;94.10;;;;;;5024639;28;20052;-16
2023/06/22 11:36:12;;;;;;;10.90;7.15;;;21.60;94.30;;;;;;5000304;28;20239;-18
2023/06/22 11:38:39;;;;;;;10.07;7.10;;;21.50;94.50;;;;;;5017474;28;20470;-17
2023/06/22 11:41:06;;;;;;;9.40;6.32;;;21.50;94.60;;;;;;4992385;28;20025;-17
2023/06/22 11:43:32;;;;;;;9.55;6.65;;;21.40;94.80;;;;;;5021596;28;20021;-19
2023/06/22 11:45:57;;;;;;;8.87;6.50;;;21.40;95.00;;;;;;4985505;28;20048;-15
2023/06/22 11:48:26;;;;;;;11.35;7.40;;;21.40;95.20;;;;;;5019537;28;20107;-20
2023/06/22 11:50:52;;;;;;;11.18;7.60;;;21.30;95.30;;;;;;4999017;28;20036;-15
2023/06/22 11:53:17;;;;;;;10.60;7.53;;;21.30;95.50;;;;;;5020844;28;20419;-18
2023/06/22 11:55:44;;;;;;;10.60;7.05;;;21.20;95.60;;;;;;5006166;28;20100;-15
2023/06/22 11:58:09;;;;;;;11.48;7.38;;;21.30;95.80;;;;;;5008510;28;20444;-16
2023/06/22 12:00:35;;;;;;;11.00;7.40;;;21.30;96.00;;;;;;5032495;28;20025;-16
2023/06/22 12:03:01;;;;;;;11.70;7.95;;;21.20;96.00;;;;;;4971796;28;20562;-15
2023/06/22 12:05:27;;;;;;;11.17;7.67;;;21.20;96.20;;;;;;5007777;28;20036;-19
2023/06/22 12:07:55;;;;;;;10.30;7.45;;;21.30;96.50;;;;;;4988555;28;20116;-16
2023/06/22 12:10:22;;;;;;;12.90;8.07;;;21.20;96.50;;;;;;5000368;28;20065;-19
2023/06/22 12:12:48;;;;;;;12.77;8.05;;;21.30;96.70;;;;;;5020252;28;20034;-15
2023/06/22 12:15:14;;;;;;;12.80;7.50;;;21.20;96.80;;;;;;5002461;28;20415;-20
2023/06/22 12:17:40;;;;;;;13.10;8.98;;;21.30;97.00;;;;;;4982217;28;20443;-20
2023/06/22 12:20:07;;;;;;;13.15;8.90;;;21.30;96.90;;;;;;5009591;28;20120;-19
2023/06/22 12:22:34;;;;;;;12.98;8.30;;;21.30;97.30;;;;;;4998099;28;20028;-20
2023/06/22 12:25:00;;;;;;;12.57;8.45;;;21.30;97.10;;;;;;5008705;28;20036;-15
2023/06/22 12:27:25;;;;;;;12.07;8.13;;;21.30;97.30;;;;;;5018616;28;20013;-20
2023/06/22 12:29:52;;;;;;;12.13;8.65;;;21.30;97.40;;;;;;5013033;28;20041;-14
2023/06/22 12:32:17;;;;;;;12.02;7.95;;;21.30;97.60;;;;;;4986729;28;21269;-22
2023/06/22 12:34:44;;;;;;;12.70;8.70;;;21.40;97.60;;;;;;5022170;28;20104;-19
2023/06/22 12:37:09;;;;;;;11.63;8.73;;;21.40;97.60;;;;;;5003963;28;23065;-19
2023/06/22 12:39:35;;;;;;;13.30;8.95;;;21.30;97.70;;;;;;5015885;28;20044;-19
2023/06/22 12:42:01;;;;;;;13.17;8.80;;;21.40;97.80;;;;;;4995756;28;20850;-15
2023/06/22 12:44:27;;;;;;;14.27;9.23;;;21.40;98.00;;;;;;5016013;28;20025;-19